Αρχική σελίδα
METAR-TAF:

METAR-TAF

Αεροδρόμια :

Κάρσον Σίτι, Νεβάδα, Ηνωμένες Πολιτείες Αμερικής

γεωγραφικό πλάτος: 39-11-32N, γεωγραφικό μήκος: 119-44-04W, υψόμετρο: 1432 μ

Παρών καιρός

Η αναφορά έγινε 12 λεπτά πριν, στις 10:55 UTC
Ήπιος άνεμος
Θερμοκρασία 8°C
Υγρασία 53%
Πίεση 1015 hPa
Ορατότητα: 16.1 χλμ
Καθαρός ουρανός

METAR: KCXP 191055Z AUTO 00000KT 10SM CLR 08/M01 A2998 RMK AO2

Χρόνος: 04:07 (11:07 UTC)

Πρόγνωση Καιρού

Η αναφορά έγινε 5 ώρες και 47 λεπτά πριν, στις 05:20 UTC
Η πρόγνωση ισχύει από τις 19 στις 06 UTC έως τις 20 στις 06 UTC
Άνεμος 3 kt από μεταβλητές κατευθύνσεις
Ορατότητα: 10 χλμ
Καθαρός ουρανός
Από 19 στις 2200 UTC
Άνεμος 10 kt από Δ με ριπές μέχρι 15 kt
Ορατότητα: 10 χλμ
Καθαρός ουρανός
Από 20 στις 0200 UTC
Άνεμος 8 kt από Β
Ορατότητα: 10 χλμ
Καθαρός ουρανός

TAF: KCXP 190520Z 1906/2006 VRB03KT P6SM SKC FM192200 28010G15KT P6SM SKC FM200200 01008KT P6SM SKC

Μετεωρολογικές αναφορές και προγνώσεις για περισσότερα από 4000 αεροδρόμια (δελτία METAR και TAF).

Οι διαθέσιμοι σταθμοί απεικονίζονται στο χάρτη με κίτρινες και κόκκινες κουκκίδες.

Μετακινήστε το ποντίκι πάνω από τις κουκκίδες για να δείτε το όνομα του σταθμού.

Στη συνέχεια, κάντε κλικ για να δείτε τις μετεωρολογικές αναφορές και τις προγνώσεις καιρού.

Για να αλλάξετε το χάρτη: κάντε κλικ στα πράσινα κουμπιά με τον μαύρο σταυρό για να ζουμάρετε, στο πράσινο κουμπί με την παύλα για να αφαιρέσετε το ζουμ ή στα πράσινα βέλη για να αντιπαραβάλλετε χάρτες.


METAR-TAF: